createdAt,value
2019-03-03T00:02:16.097Z,97481.20
2019-03-03T00:05:25.827Z,97486.09
2019-03-03T00:08:14.629Z,97482.36
2019-03-03T00:11:03.440Z,97492.73
2019-03-03T00:13:52.312Z,97424.09
2019-03-03T00:17:00.259Z,97491.63
2019-03-03T00:20:08.119Z,97502.56
2019-03-03T00:22:56.933Z,97491.69
2019-03-03T00:25:45.724Z,97495.02
2019-03-03T00:28:34.539Z,97489.20
2019-03-03T00:31:50.196Z,97485.67
2019-03-03T00:34:39.013Z,97399.05
2019-03-03T00:46:31.649Z,97473.47
2019-03-03T00:55:25.282Z,97482.11
2019-03-03T00:58:33.106Z,97476.80
2019-03-03T01:01:55.624Z,97476.13
2019-03-03T01:07:59.904Z,97477.53
2019-03-03T01:11:07.798Z,97475.27
2019-03-03T01:23:06.682Z,97423.56
2019-03-03T01:28:50.449Z,97478.99
2019-03-03T01:31:39.223Z,97473.36
2019-03-03T01:34:28.027Z,97469.28
2019-03-03T01:40:31.917Z,97472.51
2019-03-03T01:43:20.689Z,97467.05
2019-03-03T01:46:09.506Z,97461.73
2019-03-03T01:48:38.963Z,97458.72
2019-03-03T01:51:27.788Z,97460.00
2019-03-03T01:54:16.585Z,97461.13
2019-03-03T01:57:05.470Z,97462.84
2019-03-03T01:59:54.275Z,97462.07
2019-03-03T02:02:43.080Z,97426.52
2019-03-03T02:05:31.885Z,97465.30
2019-03-03T02:08:20.706Z,97458.72
2019-03-03T02:11:09.510Z,97463.13
2019-03-03T02:13:58.335Z,97396.88
2019-03-03T02:16:47.134Z,97459.42
2019-03-03T02:19:35.948Z,97461.72
2019-03-03T02:22:24.746Z,97453.02
2019-03-03T02:25:34.758Z,97453.06
2019-03-03T02:28:23.552Z,97453.66
2019-03-03T02:31:12.368Z,97248.55
2019-03-03T02:34:01.162Z,97447.09
2019-03-03T02:36:50.295Z,97433.90
2019-03-03T02:39:39.098Z,97432.87
2019-03-03T02:42:27.908Z,97362.83
2019-03-03T02:45:16.893Z,97415.45
2019-03-03T02:47:58.667Z,97406.34
2019-03-03T02:50:47.468Z,97415.91
2019-03-03T02:53:36.327Z,97243.52
2019-03-03T02:56:25.187Z,97414.41
2019-03-03T02:59:14.034Z,97412.45
2019-03-03T03:05:02.055Z,97406.81
2019-03-03T03:08:09.901Z,97399.53
2019-03-03T03:11:17.724Z,97362.48
2019-03-03T03:26:34.298Z,97384.83
2019-03-03T03:32:51.533Z,97372.73
2019-03-03T03:35:59.379Z,97362.79
2019-03-03T03:38:47.934Z,97355.20
2019-03-03T03:44:51.408Z,97337.66
2019-03-03T03:47:35.361Z,97333.39
2019-03-03T03:50:43.201Z,97332.09
2019-03-03T03:53:31.759Z,97323.37
2019-03-03T03:56:39.599Z,97329.55
2019-03-03T04:02:56.821Z,97311.53
2019-03-03T04:06:04.664Z,97317.66
2019-03-03T04:14:48.624Z,97297.75
2019-03-03T04:17:56.464Z,97293.32
2019-03-03T04:24:13.774Z,97269.91
2019-03-03T04:27:21.579Z,97038.78
2019-03-03T04:30:29.788Z,97210.55
2019-03-03T04:36:27.753Z,97285.88
2019-03-03T04:42:44.982Z,97281.20
2019-03-03T04:45:52.809Z,97285.06
2019-03-03T04:48:54.386Z,97277.61
2019-03-03T04:52:02.204Z,97279.06
2019-03-03T04:54:50.792Z,97264.20
2019-03-03T05:01:08.019Z,97260.92
2019-03-03T05:04:15.857Z,97245.64
2019-03-03T05:10:33.140Z,97245.12
2019-03-03T05:19:27.070Z,97235.95
2019-03-03T05:22:15.860Z,96990.34
2019-03-03T05:25:25.591Z,97241.52
2019-03-03T05:28:14.458Z,97241.98
2019-03-03T05:31:03.341Z,97232.48
2019-03-03T05:33:52.188Z,97230.55
2019-03-03T05:36:41.052Z,97230.10
2019-03-03T05:39:48.959Z,97228.05
2019-03-03T05:42:37.773Z,97219.57
2019-03-03T05:45:19.499Z,97221.95
2019-03-03T05:48:08.315Z,97215.28
2019-03-03T05:54:04.939Z,97071.83
2019-03-03T05:56:53.735Z,97195.30
2019-03-03T05:59:42.552Z,97195.68
2019-03-03T06:02:31.366Z,96953.38
2019-03-03T06:05:20.188Z,97197.28
2019-03-03T06:08:08.980Z,97197.41
2019-03-03T06:10:57.807Z,97062.80
2019-03-03T06:13:46.601Z,97204.79
2019-03-03T06:16:35.421Z,96996.20
2019-03-03T06:19:24.219Z,97213.03
2019-03-03T06:22:13.037Z,97205.33
2019-03-03T06:25:01.842Z,97215.78
2019-03-03T06:27:50.655Z,97224.29
2019-03-03T06:30:39.471Z,97217.03
2019-03-03T06:33:28.269Z,97216.69
2019-03-03T06:36:17.092Z,97219.84
2019-03-03T06:39:26.797Z,97152.04
2019-03-03T06:42:15.613Z,97213.73
2019-03-03T06:45:25.336Z,97204.47
2019-03-03T06:48:05.117Z,97201.48
2019-03-03T06:50:53.929Z,97204.34
2019-03-03T06:53:42.779Z,97193.38
2019-03-03T06:56:31.604Z,97063.90
2019-03-03T06:59:20.397Z,97198.83
2019-03-03T07:02:09.205Z,97208.61
2019-03-03T07:04:58.028Z,97204.23
2019-03-03T07:07:46.823Z,97210.38
2019-03-03T07:10:35.635Z,97210.77
2019-03-03T07:13:24.432Z,97212.05
2019-03-03T07:19:07.834Z,97209.66
2019-03-03T07:21:56.658Z,97205.70
2019-03-03T07:24:45.455Z,97199.83
2019-03-03T07:27:53.294Z,97206.04
2019-03-03T07:30:42.099Z,97202.00
2019-03-03T07:36:26.713Z,97211.08
2019-03-03T07:39:36.442Z,97208.20
2019-03-03T07:42:25.271Z,97206.43
2019-03-03T07:45:35.026Z,97205.18
2019-03-03T07:48:14.806Z,97111.56
2019-03-03T07:59:54.228Z,97232.42
2019-03-03T08:02:43.038Z,97236.89
2019-03-03T08:05:50.881Z,97231.09
2019-03-03T08:08:39.697Z,97024.64
2019-03-03T08:11:28.494Z,97223.06
2019-03-03T08:14:17.316Z,97226.45
2019-03-03T08:17:06.135Z,97220.48
2019-03-03T08:19:54.938Z,97146.59
2019-03-03T08:22:43.808Z,97205.30
2019-03-03T08:25:32.648Z,97190.09
2019-03-03T08:28:21.512Z,97191.46
2019-03-03T08:31:10.359Z,96959.45
2019-03-03T08:33:59.223Z,97096.25
2019-03-03T08:36:48.023Z,96972.48
2019-03-03T08:43:10.407Z,97200.98
2019-03-03T08:46:18.341Z,97198.30
2019-03-03T08:49:01.826Z,97205.80
2019-03-03T08:55:08.889Z,97207.70
2019-03-03T09:07:03.600Z,97054.38
2019-03-03T09:10:11.427Z,97210.87
2019-03-03T09:13:19.274Z,97210.88
2019-03-03T09:16:27.099Z,97215.05
2019-03-03T09:25:29.724Z,97209.97
2019-03-03T09:28:37.552Z,97219.87
2019-03-03T09:31:45.403Z,97214.55
2019-03-03T09:34:53.224Z,97217.84
2019-03-03T09:37:41.808Z,97062.27
2019-03-03T09:40:49.653Z,97212.66
2019-03-03T09:43:57.504Z,97207.06
2019-03-03T09:46:57.863Z,97207.57
2019-03-03T09:50:05.690Z,97214.84
2019-03-03T09:53:13.598Z,97221.16
2019-03-03T09:56:21.698Z,97100.25
2019-03-03T09:59:29.580Z,97210.75
2019-03-03T10:05:46.822Z,97219.13
2019-03-03T10:08:54.687Z,97088.23
2019-03-03T10:12:02.541Z,97215.03
2019-03-03T10:15:10.528Z,97217.09
2019-03-03T10:24:23.683Z,97083.97
2019-03-03T10:27:31.532Z,97207.91
2019-03-03T10:30:39.430Z,97207.62
2019-03-03T10:36:23.631Z,97211.14
2019-03-03T10:39:12.202Z,97202.66
2019-03-03T10:42:20.059Z,97198.41
2019-03-03T10:45:48.828Z,97207.72
2019-03-03T10:48:32.096Z,97199.62
2019-03-03T10:51:39.920Z,97203.92
2019-03-03T10:57:27.773Z,97053.38
2019-03-03T11:00:35.877Z,97202.80
2019-03-03T11:03:43.725Z,97200.77
2019-03-03T11:10:01.013Z,97081.11
2019-03-03T11:13:08.924Z,97200.74
2019-03-03T11:16:16.841Z,97042.15
2019-03-03T11:19:24.675Z,96989.84
2019-03-03T11:22:13.324Z,97194.45
2019-03-03T11:25:21.219Z,97196.84
2019-03-03T11:28:29.227Z,97190.69
2019-03-03T11:31:37.125Z,97192.80
2019-03-03T11:37:24.906Z,97034.13
2019-03-03T11:40:33.209Z,97186.02
2019-03-03T11:46:36.934Z,97179.02
2019-03-03T11:49:18.199Z,97185.62
2019-03-03T11:55:21.891Z,97174.25
2019-03-03T12:01:29.075Z,97154.70
2019-03-03T12:04:36.921Z,97152.09
2019-03-03T12:07:44.759Z,97155.95
2019-03-03T12:13:28.926Z,97138.57
2019-03-03T12:16:36.839Z,97146.59
2019-03-03T12:22:43.895Z,97139.50
2019-03-03T12:34:36.503Z,97152.80
2019-03-03T12:37:44.349Z,97148.14
2019-03-03T12:40:52.175Z,97141.69
2019-03-03T12:44:00.104Z,97139.51
2019-03-03T12:46:43.358Z,97132.22
2019-03-03T12:52:50.548Z,97131.81
2019-03-03T12:55:39.118Z,97124.41
2019-03-03T13:02:01.042Z,97112.43
2019-03-03T13:07:55.059Z,97102.50
2019-03-03T13:11:02.903Z,97100.86
2019-03-03T13:14:10.736Z,97094.70
2019-03-03T13:17:18.585Z,97083.57
2019-03-03T13:23:55.146Z,97098.20
2019-03-03T13:27:02.991Z,97004.72
2019-03-03T13:33:02.743Z,97076.85
2019-03-03T13:35:51.304Z,97011.63
2019-03-03T13:38:59.221Z,97059.66
2019-03-03T13:42:07.063Z,97059.29
2019-03-03T13:47:43.299Z,97055.85
2019-03-03T13:50:32.172Z,97052.54
2019-03-03T13:53:20.993Z,97053.06
2019-03-03T13:56:09.864Z,97056.23
2019-03-03T13:58:58.686Z,96937.31
2019-03-03T14:04:56.956Z,97050.77
2019-03-03T14:11:14.243Z,97045.84
2019-03-03T14:14:03.113Z,96832.61
2019-03-03T14:16:51.936Z,97040.59
2019-03-03T14:19:40.752Z,97039.42
2019-03-03T14:22:29.571Z,97041.16
2019-03-03T14:25:18.441Z,97034.81
2019-03-03T14:28:07.326Z,97029.47
2019-03-03T14:30:56.135Z,96814.52
2019-03-03T14:33:44.958Z,96938.80
2019-03-03T14:36:52.785Z,97035.34
2019-03-03T14:39:41.605Z,97031.77
2019-03-03T14:42:30.401Z,97027.77
2019-03-03T14:45:40.129Z,97029.16
2019-03-03T14:48:22.111Z,97025.06
2019-03-03T14:51:10.915Z,97024.84
2019-03-03T14:53:59.746Z,97023.51
2019-03-03T14:56:48.599Z,97019.02
2019-03-03T14:59:37.439Z,97020.69
2019-03-03T15:02:26.234Z,97007.76
2019-03-03T15:05:15.049Z,96934.06
2019-03-03T15:11:19.224Z,96994.07
2019-03-03T15:14:08.029Z,96989.86
2019-03-03T15:16:56.833Z,96988.54
2019-03-03T15:19:45.652Z,96995.09
2019-03-03T15:22:34.450Z,96991.83
2019-03-03T15:25:23.263Z,96987.08
2019-03-03T15:28:12.058Z,96987.17
2019-03-03T15:31:00.943Z,96980.83
2019-03-03T15:33:49.755Z,96844.75
2019-03-03T15:36:38.569Z,96970.15
2019-03-03T15:39:27.360Z,96815.09
2019-03-03T15:45:31.420Z,96960.50
2019-03-03T15:48:11.246Z,96820.52
2019-03-03T15:51:00.071Z,96959.69
2019-03-03T15:53:48.873Z,96960.30
2019-03-03T15:56:37.687Z,96953.27
2019-03-03T15:59:26.482Z,96953.13
2019-03-03T16:02:15.371Z,96954.52
2019-03-03T16:08:32.857Z,96950.94
2019-03-03T16:11:21.726Z,96951.13
2019-03-03T16:14:10.545Z,96936.80
2019-03-03T16:16:59.341Z,96928.89
2019-03-03T16:19:48.159Z,96911.75
2019-03-03T16:22:36.979Z,96911.34
2019-03-03T16:25:26.063Z,96907.20
2019-03-03T16:28:14.867Z,96692.92
2019-03-03T16:31:03.700Z,96670.42
2019-03-03T16:33:52.497Z,96907.02
2019-03-03T16:36:41.306Z,96910.25
2019-03-03T16:39:30.118Z,96909.36
2019-03-03T16:42:18.944Z,96906.10
2019-03-03T16:45:28.655Z,96907.72
2019-03-03T16:48:10.729Z,96894.42
2019-03-03T16:50:59.524Z,96897.28
2019-03-03T16:53:48.344Z,96886.40
2019-03-03T16:56:37.134Z,96873.02
2019-03-03T16:59:25.955Z,96868.42
2019-03-03T17:02:14.747Z,96872.23
2019-03-03T17:08:18.188Z,96851.80
2019-03-03T17:11:07.008Z,96852.38
2019-03-03T17:13:55.808Z,96864.56
2019-03-03T17:16:44.630Z,96729.73
2019-03-03T17:19:33.428Z,96862.52
2019-03-03T17:22:22.238Z,96861.75
2019-03-03T17:25:31.953Z,96858.25
2019-03-03T17:28:20.766Z,96724.25
2019-03-03T17:31:28.589Z,96853.84
2019-03-03T17:34:17.405Z,96653.61
2019-03-03T17:37:06.203Z,96849.90
2019-03-03T17:39:48.013Z,96842.86
2019-03-03T17:42:36.800Z,96841.98
2019-03-03T17:45:25.892Z,96838.79
2019-03-03T17:48:14.689Z,96836.36
2019-03-03T17:51:03.507Z,96618.28
2019-03-03T17:53:52.393Z,96848.42
2019-03-03T17:56:41.159Z,96839.21
2019-03-03T17:59:29.980Z,96599.59
2019-03-03T18:02:18.770Z,96650.23
2019-03-03T18:05:08.330Z,96811.04
2019-03-03T18:07:57.251Z,96831.77
2019-03-03T18:10:47.732Z,96828.60
2019-03-03T18:16:44.284Z,96828.08
2019-03-03T18:19:33.088Z,96692.09
2019-03-03T18:22:21.906Z,96816.23
2019-03-03T18:25:31.626Z,96685.36
2019-03-03T18:28:20.446Z,96812.77
2019-03-03T18:31:09.247Z,96797.83
2019-03-03T18:33:58.136Z,96792.16
2019-03-03T18:36:46.931Z,96697.66
2019-03-03T18:39:28.741Z,96799.22
2019-03-03T18:42:17.540Z,96796.48
2019-03-03T18:45:27.541Z,96570.64
2019-03-03T18:48:16.321Z,96786.23
2019-03-03T18:51:05.208Z,96788.59
2019-03-03T18:53:54.104Z,96778.34
2019-03-03T18:56:42.899Z,96783.24
2019-03-03T18:59:31.722Z,96778.34
2019-03-03T19:02:20.519Z,96778.80
2019-03-03T19:08:24.599Z,96770.96
2019-03-03T19:11:13.412Z,96774.63
2019-03-03T19:14:02.209Z,96766.24
2019-03-03T19:16:51.028Z,96758.62
2019-03-03T19:19:39.831Z,96746.40
2019-03-03T19:22:28.648Z,96707.77
2019-03-03T19:28:46.147Z,96728.49
2019-03-03T19:31:34.947Z,96729.63
2019-03-03T19:34:23.762Z,96726.40
2019-03-03T19:37:12.570Z,96728.68
2019-03-03T19:39:54.381Z,96721.95
2019-03-03T19:42:43.181Z,96716.44
2019-03-03T19:45:52.921Z,96709.37
2019-03-03T19:48:41.775Z,96705.74
2019-03-03T19:51:30.590Z,96705.28
2019-03-03T19:57:14.161Z,96700.41
2019-03-03T20:03:18.137Z,96699.58
2019-03-03T20:06:06.929Z,96699.58
2019-03-03T20:08:55.754Z,96687.34
2019-03-03T20:11:47.029Z,96691.92
2019-03-03T20:14:35.266Z,96681.55
2019-03-03T20:17:24.126Z,96591.09
2019-03-03T20:20:33.899Z,96665.96
2019-03-03T20:23:22.782Z,96665.20
2019-03-03T20:29:19.417Z,96652.09
2019-03-03T20:32:08.210Z,96524.45
2019-03-03T20:34:57.033Z,96648.66
2019-03-03T20:41:06.858Z,96649.64
2019-03-03T20:43:55.671Z,96642.78
2019-03-03T20:46:44.491Z,96636.84
2019-03-03T20:49:33.294Z,96626.67
2019-03-03T20:52:22.106Z,96627.27
2019-03-03T20:55:31.828Z,96620.16
2019-03-03T21:01:36.130Z,96610.53
2019-03-03T21:04:24.951Z,96613.79
2019-03-03T21:07:13.755Z,96610.20
2019-03-03T21:10:02.599Z,96607.95
2019-03-03T21:12:51.382Z,96606.84
2019-03-03T21:15:40.379Z,96600.61
2019-03-03T21:21:36.951Z,96579.09
2019-03-03T21:24:25.753Z,96575.44
2019-03-03T21:27:14.572Z,96577.76
2019-03-03T21:30:03.410Z,96576.39
2019-03-03T21:36:20.688Z,96387.75
2019-03-03T21:39:09.501Z,96579.17
2019-03-03T21:41:52.586Z,96577.38
2019-03-03T21:44:41.419Z,96391.70
2019-03-03T21:47:30.224Z,96566.73
2019-03-03T21:50:39.967Z,96548.09
2019-03-03T21:53:28.764Z,96546.02
2019-03-03T21:56:36.605Z,96548.29
2019-03-03T21:59:25.413Z,96549.19
2019-03-03T22:02:14.294Z,96537.84
2019-03-03T22:05:03.096Z,96334.02
2019-03-03T22:07:51.904Z,96524.92
2019-03-03T22:10:40.724Z,96513.39
2019-03-03T22:13:29.517Z,96498.98
2019-03-03T22:16:18.331Z,96500.89
2019-03-03T22:19:07.201Z,96505.23
2019-03-03T22:21:56.018Z,96509.20
2019-03-03T22:24:44.818Z,96498.86
2019-03-03T22:27:33.642Z,96483.08
2019-03-03T22:30:22.520Z,96326.39
2019-03-03T22:36:05.443Z,96469.41
2019-03-03T22:38:54.268Z,96469.41
2019-03-03T22:41:34.072Z,96476.50
2019-03-03T22:44:22.907Z,96470.00
2019-03-03T22:47:11.712Z,96469.07
2019-03-03T22:50:00.524Z,96452.73
2019-03-03T22:52:49.331Z,96457.33
2019-03-03T22:58:52.890Z,96447.28
2019-03-03T23:05:29.951Z,96448.23
2019-03-03T23:08:39.655Z,96435.68
2019-03-03T23:12:07.163Z,96313.87
2019-03-03T23:15:17.143Z,96438.17
2019-03-03T23:18:44.652Z,96376.56
2019-03-03T23:21:54.376Z,96207.09
2019-03-03T23:25:21.886Z,96397.00
2019-03-03T23:28:10.718Z,96386.30
2019-03-03T23:30:59.540Z,96370.66
2019-03-03T23:33:48.349Z,96357.49
2019-03-03T23:36:37.167Z,96304.72
2019-03-03T23:39:25.973Z,96352.45
2019-03-03T23:42:14.863Z,96347.76
2019-03-03T23:48:32.205Z,96169.61
2019-03-03T23:51:21.065Z,96351.16
2019-03-03T23:54:09.883Z,96152.33
2019-03-03T23:56:58.685Z,96336.01
2019-03-03T23:59:47.508Z,96327.75
